createdAt,value
2023-01-28T00:01:28.478Z,1.57
2023-01-28T00:03:00.315Z,1.55
2023-01-28T00:04:32.412Z,1.56
2023-01-28T00:06:08.277Z,1.56
2023-01-28T00:07:40.422Z,1.56
2023-01-28T00:09:12.245Z,1.55
2023-01-28T00:10:44.123Z,1.56
2023-01-28T00:12:15.957Z,1.57
2023-01-28T00:13:47.852Z,1.57
2023-01-28T00:15:19.694Z,1.57
2023-01-28T00:16:51.583Z,1.58
2023-01-28T00:18:23.660Z,1.56
2023-01-28T00:19:55.491Z,1.56
2023-01-28T00:21:27.462Z,1.57
2023-01-28T00:22:59.312Z,1.55
2023-01-28T00:24:31.154Z,1.53
2023-01-28T00:26:03.915Z,1.50
2023-01-28T00:27:35.791Z,1.49
2023-01-28T00:29:07.667Z,1.47
2023-01-28T00:30:39.517Z,1.44
2023-01-28T00:32:11.572Z,1.41
2023-01-28T00:33:43.840Z,1.39
2023-01-28T00:35:16.145Z,1.38
2023-01-28T00:36:57.696Z,1.36
2023-01-28T00:38:29.701Z,1.36
2023-01-28T00:40:01.507Z,1.34
2023-01-28T00:41:33.378Z,1.33
2023-01-28T00:43:05.177Z,1.32
2023-01-28T00:44:37.150Z,1.31
2023-01-28T00:46:09.625Z,1.31
2023-01-28T00:47:41.554Z,1.30
2023-01-28T00:49:13.361Z,1.29
2023-01-28T00:50:45.867Z,1.31
2023-01-28T00:52:17.703Z,1.30
2023-01-28T00:53:49.718Z,1.31
2023-01-28T00:55:21.988Z,1.31
2023-01-28T00:56:56.832Z,1.29
2023-01-28T00:58:28.635Z,1.31
2023-01-28T01:00:00.649Z,1.32
2023-01-28T01:01:32.628Z,1.33
2023-01-28T01:03:04.499Z,1.32
2023-01-28T01:04:36.373Z,1.32
2023-01-28T01:06:08.428Z,1.30
2023-01-28T01:07:42.989Z,1.31
2023-01-28T01:09:14.798Z,1.30
2023-01-28T01:10:46.777Z,1.30
2023-01-28T01:12:18.664Z,1.27
2023-01-28T01:13:51.590Z,1.26
2023-01-28T01:15:23.424Z,1.24
2023-01-28T01:16:55.501Z,1.24
2023-01-28T01:18:27.419Z,1.21
2023-01-28T01:19:59.255Z,1.21
2023-01-28T01:21:31.355Z,1.20
2023-01-28T01:23:03.217Z,1.19
2023-01-28T01:24:35.202Z,1.18
2023-01-28T01:26:07.300Z,1.18
2023-01-28T01:27:39.204Z,1.19
2023-01-28T01:29:11.154Z,1.19
2023-01-28T01:30:43.026Z,1.19
2023-01-28T01:32:14.883Z,1.19
2023-01-28T01:33:47.600Z,1.19
2023-01-28T01:35:19.394Z,1.19
2023-01-28T01:36:51.354Z,1.19
2023-01-28T01:38:23.473Z,1.17
2023-01-28T01:39:55.403Z,1.17
2023-01-28T01:41:27.731Z,1.15
2023-01-28T01:42:59.589Z,1.18
2023-01-28T01:44:49.969Z,1.19
2023-01-28T01:46:40.614Z,1.20
2023-01-28T01:48:15.094Z,1.22
2023-01-28T01:49:46.991Z,1.24
2023-01-28T01:51:20.197Z,1.23
2023-01-28T01:52:53.763Z,1.22
2023-01-28T01:54:25.830Z,1.21
2023-01-28T01:55:59.072Z,1.22
2023-01-28T01:57:31.667Z,1.24
2023-01-28T01:59:03.605Z,1.24
2023-01-28T02:02:08.434Z,1.27
2023-01-28T02:04:09.282Z,1.27
2023-01-28T02:05:41.149Z,1.26
2023-01-28T02:07:14.130Z,1.24
2023-01-28T02:08:46.025Z,1.21
2023-01-28T02:10:17.938Z,1.19
2023-01-28T02:11:49.784Z,1.21
2023-01-28T02:13:22.618Z,1.21
2023-01-28T02:14:55.397Z,1.22
2023-01-28T02:16:27.490Z,1.21
2023-01-28T02:17:59.381Z,1.21
2023-01-28T02:19:33.428Z,1.19
2023-01-28T02:21:24.132Z,1.17
2023-01-28T02:22:55.987Z,1.16
2023-01-28T02:24:30.799Z,1.15
2023-01-28T02:26:02.747Z,1.15
2023-01-28T02:27:53.082Z,1.15
2023-01-28T02:29:27.614Z,1.14
2023-01-28T02:31:03.070Z,1.14
2023-01-28T02:32:41.091Z,1.14
2023-01-28T02:34:19.905Z,1.15
2023-01-28T02:35:54.637Z,1.16
2023-01-28T02:37:38.339Z,1.16
2023-01-28T02:39:13.574Z,1.17
2023-01-28T02:41:02.480Z,1.16
2023-01-28T02:42:34.977Z,1.17
2023-01-28T02:44:06.963Z,1.17
2023-01-28T02:45:57.425Z,1.17
2023-01-28T02:47:52.185Z,1.16
2023-01-28T02:49:24.116Z,1.16
2023-01-28T02:51:03.857Z,1.16
2023-01-28T02:53:29.966Z,1.14
2023-01-28T02:55:05.160Z,1.13
2023-01-28T02:56:46.040Z,1.12
2023-01-28T02:58:28.270Z,1.11
2023-01-28T03:00:12.890Z,1.11
2023-01-28T03:01:44.792Z,1.11
2023-01-28T03:03:22.857Z,1.11
2023-01-28T03:05:06.209Z,1.13
2023-01-28T03:06:39.948Z,1.14
2023-01-28T03:08:30.448Z,1.16
2023-01-28T03:10:06.314Z,1.18
2023-01-28T03:12:00.631Z,1.19
2023-01-28T03:13:51.047Z,1.20
2023-01-28T03:15:42.687Z,1.23
2023-01-28T03:17:38.324Z,1.22
2023-01-28T03:19:29.347Z,1.23
2023-01-28T03:21:28.544Z,1.23
2023-01-28T03:23:20.397Z,1.22
2023-01-28T03:25:10.957Z,1.22
2023-01-28T03:27:03.371Z,1.19
2023-01-28T03:28:53.616Z,1.18
2023-01-28T03:31:04.137Z,1.18
2023-01-28T03:32:54.481Z,1.17
2023-01-28T03:34:44.952Z,1.19
2023-01-28T03:36:35.123Z,1.21
2023-01-28T03:38:18.451Z,1.23
2023-01-28T03:39:50.341Z,1.21
2023-01-28T03:41:23.369Z,1.19
2023-01-28T03:42:57.173Z,1.19
2023-01-28T03:44:47.612Z,1.17
2023-01-28T03:46:19.699Z,1.18
2023-01-28T03:47:54.577Z,1.17
2023-01-28T03:49:26.603Z,1.18
2023-01-28T03:51:00.693Z,1.18
2023-01-28T03:52:33.123Z,1.20
2023-01-28T03:54:05.061Z,1.21
2023-01-28T03:55:36.964Z,1.24
2023-01-28T03:57:08.839Z,1.24
2023-01-28T03:58:47.086Z,1.26
2023-01-28T04:00:20.485Z,1.28
2023-01-28T04:01:52.373Z,1.29
2023-01-28T04:03:24.257Z,1.31
2023-01-28T04:04:56.237Z,1.31
2023-01-28T04:06:29.265Z,1.31
2023-01-28T04:08:01.064Z,1.30
2023-01-28T04:09:32.967Z,1.31
2023-01-28T04:11:16.003Z,1.31
2023-01-28T04:12:50.193Z,1.31
2023-01-28T04:14:24.655Z,1.31
2023-01-28T04:15:56.517Z,1.31
2023-01-28T04:17:28.407Z,1.30
2023-01-28T04:19:00.371Z,1.29
2023-01-28T04:20:32.324Z,1.30
2023-01-28T04:22:05.262Z,1.31
2023-01-28T04:23:37.410Z,1.31
2023-01-28T04:25:09.892Z,1.30
2023-01-28T04:26:41.890Z,1.30
2023-01-28T04:28:13.775Z,1.28
2023-01-28T04:29:45.617Z,1.28
2023-01-28T04:31:17.511Z,1.27
2023-01-28T04:32:50.901Z,1.25
2023-01-28T04:34:22.850Z,1.25
2023-01-28T04:35:54.861Z,1.25
2023-01-28T04:37:26.748Z,1.24
2023-01-28T04:38:58.667Z,1.25
2023-01-28T04:40:30.582Z,1.26
2023-01-28T04:42:02.391Z,1.27
2023-01-28T04:43:34.411Z,1.29
2023-01-28T04:45:06.527Z,1.28
2023-01-28T04:46:38.349Z,1.26
2023-01-28T04:48:10.152Z,1.24
2023-01-28T04:49:42.198Z,1.23
2023-01-28T04:51:14.034Z,1.22
2023-01-28T04:52:46.077Z,1.21
2023-01-28T04:54:17.997Z,1.20
2023-01-28T04:55:49.801Z,1.18
2023-01-28T04:57:21.605Z,1.18
2023-01-28T04:58:53.424Z,1.16
2023-01-28T05:00:25.301Z,1.16
2023-01-28T05:01:57.160Z,1.17
2023-01-28T05:03:28.974Z,1.17
2023-01-28T05:05:01.929Z,1.17
2023-01-28T05:06:33.807Z,1.18
2023-01-28T05:08:05.744Z,1.19
2023-01-28T05:09:37.623Z,1.19
2023-01-28T05:11:09.492Z,1.19
2023-01-28T05:12:41.268Z,1.20
2023-01-28T05:14:13.083Z,1.20
2023-01-28T05:15:44.977Z,1.20
2023-01-28T05:17:16.781Z,1.20
2023-01-28T05:18:48.569Z,1.20
2023-01-28T05:20:20.413Z,1.21
2023-01-28T05:21:52.319Z,1.23
2023-01-28T05:23:24.188Z,1.23
2023-01-28T05:24:56.109Z,1.25
2023-01-28T05:26:28.097Z,1.23
2023-01-28T05:27:59.983Z,1.23
2023-01-28T05:29:31.806Z,1.21
2023-01-28T05:31:07.116Z,1.22
2023-01-28T05:32:39.040Z,1.24
2023-01-28T05:34:10.941Z,1.24
2023-01-28T05:35:43.350Z,1.23
2023-01-28T05:37:15.422Z,1.24
2023-01-28T05:38:47.304Z,1.23
2023-01-28T05:40:19.282Z,1.23
2023-01-28T05:41:51.155Z,1.24
2023-01-28T05:43:23.112Z,1.23
2023-01-28T05:44:54.905Z,1.20
2023-01-28T05:46:26.681Z,1.20
2023-01-28T05:47:58.503Z,1.20
2023-01-28T05:49:30.385Z,1.20
2023-01-28T05:51:02.293Z,1.18
2023-01-28T05:52:34.248Z,1.18
2023-01-28T05:54:09.226Z,1.18
2023-01-28T05:55:41.114Z,1.16
2023-01-28T05:57:13.013Z,1.16
2023-01-28T05:58:44.846Z,1.15
2023-01-28T06:00:17.529Z,1.14
2023-01-28T06:01:49.845Z,1.16
2023-01-28T06:03:21.712Z,1.18
2023-01-28T06:04:53.605Z,1.19
2023-01-28T06:06:25.523Z,1.20
2023-01-28T06:09:31.129Z,1.21
2023-01-28T06:11:02.895Z,1.21
2023-01-28T06:12:34.719Z,1.23
2023-01-28T06:14:06.641Z,1.24
2023-01-28T06:15:38.729Z,1.24
2023-01-28T06:17:10.619Z,1.24
2023-01-28T06:18:42.527Z,1.26
2023-01-28T06:20:14.640Z,1.26
2023-01-28T06:21:46.643Z,1.23
2023-01-28T06:23:18.546Z,1.23
2023-01-28T06:24:50.458Z,1.22
2023-01-28T06:26:22.484Z,1.21
2023-01-28T06:27:54.435Z,1.20
2023-01-28T06:29:26.296Z,1.18
2023-01-28T06:30:58.178Z,1.19
2023-01-28T06:32:30.171Z,1.18
2023-01-28T06:34:01.997Z,1.19
2023-01-28T06:35:33.957Z,1.17
2023-01-28T06:37:05.819Z,1.15
2023-01-28T06:38:37.734Z,1.15
2023-01-28T06:40:10.135Z,1.14
2023-01-28T06:41:42.021Z,1.12
2023-01-28T06:43:13.813Z,1.13
2023-01-28T06:44:45.665Z,1.15
2023-01-28T06:46:17.604Z,1.15
2023-01-28T06:47:49.532Z,1.15
2023-01-28T06:49:22.249Z,1.15
2023-01-28T06:50:54.242Z,1.14
2023-01-28T06:52:26.141Z,1.14
2023-01-28T06:53:57.946Z,1.13
2023-01-28T06:55:32.803Z,1.12
2023-01-28T06:57:04.734Z,1.13
2023-01-28T06:58:36.565Z,1.13
2023-01-28T07:00:10.397Z,1.16
2023-01-28T07:01:42.314Z,1.18
2023-01-28T07:03:14.274Z,1.20
2023-01-28T07:04:47.073Z,1.21
2023-01-28T07:06:18.912Z,1.22
2023-01-28T07:07:50.742Z,1.23
2023-01-28T07:09:22.655Z,1.24
2023-01-28T07:10:54.521Z,1.24
2023-01-28T07:12:26.433Z,1.24
2023-01-28T07:13:58.313Z,1.23
2023-01-28T07:15:30.197Z,1.21
2023-01-28T07:17:02.108Z,1.23
2023-01-28T07:18:33.925Z,1.23
2023-01-28T07:20:06.550Z,1.23
2023-01-28T07:21:38.409Z,1.23
2023-01-28T07:24:46.849Z,1.25
2023-01-28T07:26:20.416Z,1.25
2023-01-28T07:27:53.486Z,1.25
2023-01-28T07:29:25.299Z,1.25
2023-01-28T07:30:57.257Z,1.27
2023-01-28T07:32:29.282Z,1.28
2023-01-28T07:34:01.209Z,1.29
2023-01-28T07:35:33.077Z,1.31
2023-01-28T07:37:05.202Z,1.35
2023-01-28T07:38:37.231Z,1.38
2023-01-28T07:40:09.347Z,1.42
2023-01-28T07:41:41.607Z,1.44
2023-01-28T07:43:13.679Z,1.47
2023-01-28T07:44:45.714Z,1.51
2023-01-28T07:46:17.682Z,1.53
2023-01-28T07:47:56.630Z,1.57
2023-01-28T07:49:28.684Z,1.61
2023-01-28T07:51:00.709Z,1.64
2023-01-28T07:52:38.587Z,1.64
2023-01-28T07:54:10.544Z,1.67
2023-01-28T07:55:42.522Z,1.69
2023-01-28T07:57:14.434Z,1.72
2023-01-28T07:58:46.533Z,1.73
2023-01-28T08:00:18.768Z,1.76
2023-01-28T08:01:50.824Z,1.80
2023-01-28T08:03:25.877Z,1.80
2023-01-28T08:04:59.612Z,1.84
2023-01-28T08:06:31.610Z,1.87
2023-01-28T08:09:39.758Z,1.88
2023-01-28T08:11:12.114Z,1.87
2023-01-28T08:12:58.673Z,1.86
2023-01-28T08:14:30.497Z,1.88
2023-01-28T08:16:02.641Z,1.90
2023-01-28T08:17:34.507Z,1.89
2023-01-28T08:19:06.779Z,1.88
2023-01-28T08:20:38.645Z,1.87
2023-01-28T08:22:10.543Z,1.86
2023-01-28T08:23:42.356Z,1.81
2023-01-28T08:25:14.395Z,1.83
2023-01-28T08:26:48.359Z,1.83
2023-01-28T08:28:20.505Z,1.85
2023-01-28T08:29:52.500Z,1.86
2023-01-28T08:31:24.489Z,1.86
2023-01-28T08:32:59.825Z,1.85
2023-01-28T08:34:31.783Z,1.86
2023-01-28T08:36:04.644Z,1.88
2023-01-28T08:37:36.531Z,1.90
2023-01-28T08:39:08.459Z,1.93
2023-01-28T08:40:40.443Z,1.91
2023-01-28T08:42:13.382Z,1.93
2023-01-28T08:43:45.333Z,1.92
2023-01-28T08:45:17.429Z,1.93
2023-01-28T08:46:49.422Z,1.93
2023-01-28T08:48:22.089Z,1.93
2023-01-28T08:49:54.032Z,1.95
2023-01-28T08:51:25.882Z,1.99
2023-01-28T08:53:02.423Z,1.99
2023-01-28T08:54:34.366Z,2.00
2023-01-28T08:56:06.363Z,2.02
2023-01-28T08:57:38.281Z,2.05
2023-01-28T08:59:10.242Z,2.05
2023-01-28T09:00:42.337Z,2.06
2023-01-28T09:02:29.407Z,2.05
2023-01-28T09:04:03.233Z,2.05
2023-01-28T09:05:35.781Z,2.08
2023-01-28T09:07:07.667Z,2.10
2023-01-28T09:08:39.615Z,2.14
2023-01-28T09:10:11.821Z,2.16
2023-01-28T09:11:43.912Z,2.18
2023-01-28T09:13:16.468Z,2.19
2023-01-28T09:14:48.328Z,2.23
2023-01-28T09:16:20.248Z,2.23
2023-01-28T09:17:57.656Z,2.25
2023-01-28T09:19:30.112Z,2.22
2023-01-28T09:21:05.869Z,2.24
2023-01-28T09:22:38.949Z,2.25
2023-01-28T09:24:12.105Z,2.27
2023-01-28T09:25:44.076Z,2.31
2023-01-28T09:27:15.965Z,2.30
2023-01-28T09:28:48.052Z,2.29
2023-01-28T09:30:19.960Z,2.23
2023-01-28T09:31:51.940Z,2.22
2023-01-28T09:33:23.937Z,2.24
2023-01-28T09:34:58.083Z,2.29
2023-01-28T09:36:30.044Z,2.30
2023-01-28T09:38:01.926Z,2.29
2023-01-28T09:39:33.809Z,2.30
2023-01-28T09:41:26.173Z,2.29
2023-01-28T09:43:10.508Z,2.30
2023-01-28T09:44:54.587Z,2.32
2023-01-28T09:46:29.683Z,2.33
2023-01-28T09:48:03.475Z,2.26
2023-01-28T09:49:45.665Z,2.21
2023-01-28T09:51:31.985Z,2.22
2023-01-28T09:53:22.166Z,2.25
2023-01-28T09:54:54.091Z,2.21
2023-01-28T09:56:26.590Z,2.21
2023-01-28T09:57:58.467Z,2.21
2023-01-28T09:59:30.337Z,2.21
2023-01-28T10:01:20.871Z,2.20
2023-01-28T10:03:02.075Z,2.22
2023-01-28T10:04:52.566Z,2.23
2023-01-28T10:06:24.399Z,2.23
2023-01-28T10:07:59.612Z,2.21
2023-01-28T10:09:51.625Z,2.18
2023-01-28T10:11:32.747Z,2.20
2023-01-28T10:13:08.236Z,2.21
2023-01-28T10:14:42.759Z,2.21
2023-01-28T10:16:14.578Z,2.16
2023-01-28T10:17:47.487Z,2.16
2023-01-28T10:19:23.990Z,2.16
2023-01-28T10:20:56.506Z,2.09
2023-01-28T10:22:32.730Z,2.11
2023-01-28T10:24:26.200Z,2.12
2023-01-28T10:25:58.311Z,2.11
2023-01-28T10:27:30.525Z,2.13
2023-01-28T10:29:10.124Z,2.14
2023-01-28T10:30:42.104Z,2.17
2023-01-28T10:32:24.099Z,2.18
2023-01-28T10:33:55.955Z,2.22
2023-01-28T10:35:28.222Z,2.25
2023-01-28T10:37:00.060Z,2.28
2023-01-28T10:38:32.075Z,2.27
2023-01-28T10:40:04.502Z,2.31
2023-01-28T10:41:40.026Z,2.25
2023-01-28T10:43:20.477Z,2.28
2023-01-28T10:44:52.349Z,2.29
2023-01-28T10:46:24.980Z,2.31
2023-01-28T10:48:00.545Z,2.33
2023-01-28T10:49:32.550Z,2.33
2023-01-28T10:51:06.579Z,2.32
2023-01-28T10:52:38.548Z,2.32
2023-01-28T10:54:23.804Z,2.32
2023-01-28T10:55:56.672Z,2.37
2023-01-28T10:57:28.724Z,2.39
2023-01-28T10:59:01.125Z,2.38
2023-01-28T11:00:35.668Z,2.34
2023-01-28T11:02:26.102Z,2.35
2023-01-28T11:03:58.757Z,2.37
2023-01-28T11:05:31.312Z,2.39
2023-01-28T11:07:07.264Z,2.42
2023-01-28T11:08:43.861Z,2.39
2023-01-28T11:10:41.919Z,2.39
2023-01-28T11:12:17.903Z,2.41
2023-01-28T11:13:50.211Z,2.40
2023-01-28T11:15:22.110Z,2.42
2023-01-28T11:16:55.023Z,2.42
2023-01-28T11:18:28.349Z,2.43
2023-01-28T11:20:01.356Z,2.45
2023-01-28T11:21:33.504Z,2.47
2023-01-28T11:23:05.347Z,2.48
2023-01-28T11:24:37.254Z,2.49
2023-01-28T11:26:25.351Z,2.52
2023-01-28T11:27:57.387Z,2.53
2023-01-28T11:29:31.326Z,2.57
2023-01-28T11:31:03.434Z,2.57
2023-01-28T11:32:35.508Z,2.58
2023-01-28T11:34:07.369Z,2.60
2023-01-28T11:35:40.268Z,2.55
2023-01-28T11:37:19.004Z,2.55
2023-01-28T11:38:57.750Z,2.56
2023-01-28T11:40:29.708Z,2.55
2023-01-28T11:42:13.893Z,2.54
2023-01-28T11:43:46.297Z,2.56
2023-01-28T11:45:19.424Z,2.55
2023-01-28T11:47:10.412Z,2.56
2023-01-28T11:48:45.667Z,2.56
2023-01-28T11:50:17.928Z,2.59
2023-01-28T11:51:59.528Z,2.61
2023-01-28T11:53:46.604Z,2.60
2023-01-28T11:55:36.990Z,2.60
2023-01-28T11:59:02.537Z,2.62
2023-01-28T12:00:37.377Z,2.64
2023-01-28T12:02:28.008Z,2.63
2023-01-28T12:04:11.980Z,2.65
2023-01-28T12:05:48.964Z,2.69
2023-01-28T12:07:30.752Z,2.68
2023-01-28T12:09:08.633Z,2.68
2023-01-28T12:10:40.682Z,2.69
2023-01-28T12:12:15.946Z,2.68
2023-01-28T12:13:50.836Z,2.68
2023-01-28T12:15:41.227Z,2.72
2023-01-28T12:17:23.399Z,2.75
2023-01-28T12:19:05.385Z,2.77
2023-01-28T12:20:39.492Z,2.78
2023-01-28T12:22:20.048Z,2.78
2023-01-28T12:24:10.794Z,2.77
2023-01-28T12:25:46.630Z,2.77
2023-01-28T12:27:32.431Z,2.78
2023-01-28T12:29:13.289Z,2.77
2023-01-28T12:31:06.106Z,2.77
2023-01-28T12:32:43.871Z,2.77
2023-01-28T12:34:22.456Z,2.81
2023-01-28T12:36:12.461Z,2.83
2023-01-28T12:37:56.184Z,2.84
2023-01-28T12:39:34.336Z,2.85
2023-01-28T12:41:26.209Z,2.83
2023-01-28T12:43:01.047Z,2.83
2023-01-28T12:44:37.303Z,2.78
2023-01-28T12:46:23.872Z,2.79
2023-01-28T12:48:03.119Z,2.79
2023-01-28T12:49:35.000Z,2.79
2023-01-28T12:51:23.903Z,2.79
2023-01-28T12:52:59.447Z,2.71
2023-01-28T12:54:36.625Z,2.64
2023-01-28T12:56:16.345Z,2.66
2023-01-28T12:57:49.226Z,2.68
2023-01-28T12:59:31.084Z,2.60
2023-01-28T13:01:04.529Z,2.62
2023-01-28T13:02:59.888Z,2.64
2023-01-28T13:04:39.598Z,2.65
2023-01-28T13:06:12.982Z,2.61
2023-01-28T13:07:47.120Z,2.63
2023-01-28T13:09:20.649Z,2.63
2023-01-28T13:10:53.123Z,2.66
2023-01-28T13:12:25.133Z,2.64
2023-01-28T13:13:57.007Z,2.66
2023-01-28T13:15:28.850Z,2.68
2023-01-28T13:17:10.482Z,2.66
2023-01-28T13:18:48.501Z,2.68
2023-01-28T13:20:31.017Z,2.69
2023-01-28T13:22:10.570Z,2.71
2023-01-28T13:23:46.672Z,2.75
2023-01-28T13:25:23.509Z,2.78
2023-01-28T13:26:56.766Z,2.80
2023-01-28T13:28:28.847Z,2.81
2023-01-28T13:30:05.322Z,2.81
2023-01-28T13:31:38.644Z,2.82
2023-01-28T13:33:27.686Z,2.83
2023-01-28T13:35:02.021Z,2.83
2023-01-28T13:36:34.904Z,2.86
2023-01-28T13:38:10.897Z,2.89
2023-01-28T13:39:46.305Z,2.90
2023-01-28T13:41:18.235Z,2.92
2023-01-28T13:43:03.958Z,2.92
2023-01-28T13:44:36.235Z,2.93
2023-01-28T13:46:11.019Z,2.93
2023-01-28T13:47:47.367Z,2.90
2023-01-28T13:49:21.758Z,2.88
2023-01-28T13:50:54.623Z,2.89
2023-01-28T13:52:29.506Z,2.91
2023-01-28T13:54:03.271Z,2.93
2023-01-28T13:55:44.348Z,2.94
2023-01-28T13:57:31.567Z,2.95
2023-01-28T13:59:22.337Z,2.95
2023-01-28T14:00:57.195Z,2.96
2023-01-28T14:02:29.094Z,2.93
2023-01-28T14:04:11.999Z,2.93
2023-01-28T14:06:03.273Z,2.94
2023-01-28T14:07:35.125Z,2.96
2023-01-28T14:09:11.090Z,2.96
2023-01-28T14:12:43.316Z,2.96
2023-01-28T14:14:26.998Z,2.97
2023-01-28T14:16:17.777Z,2.96
2023-01-28T14:17:50.715Z,2.95
2023-01-28T14:19:33.441Z,2.97
2023-01-28T14:21:10.030Z,2.96
2023-01-28T14:22:42.060Z,2.95
2023-01-28T14:24:17.833Z,2.93
2023-01-28T14:25:57.150Z,2.93
2023-01-28T14:27:38.968Z,2.92
2023-01-28T14:29:20.013Z,2.92
2023-01-28T14:30:55.452Z,2.91
2023-01-28T14:32:29.485Z,2.92
2023-01-28T14:34:24.685Z,2.91
2023-01-28T14:35:56.625Z,2.92
2023-01-28T14:37:31.792Z,2.91
2023-01-28T14:39:03.738Z,2.91
2023-01-28T14:40:37.053Z,2.91
2023-01-28T14:42:12.023Z,2.90
2023-01-28T14:43:43.919Z,2.90
2023-01-28T14:45:31.017Z,2.89
2023-01-28T14:47:20.879Z,2.88
2023-01-28T14:49:01.840Z,2.87
2023-01-28T14:50:52.195Z,2.86
2023-01-28T14:52:42.456Z,2.84
2023-01-28T14:54:14.336Z,2.82
2023-01-28T14:55:48.671Z,2.81
2023-01-28T14:57:29.426Z,2.81
2023-01-28T14:59:02.465Z,2.81
2023-01-28T15:00:34.775Z,2.80
2023-01-28T15:02:33.101Z,2.80
2023-01-28T15:04:05.076Z,2.79
2023-01-28T15:05:36.976Z,2.78
2023-01-28T15:07:18.157Z,2.72
2023-01-28T15:08:53.239Z,2.69
2023-01-28T15:11:57.768Z,2.66
2023-01-28T15:13:30.627Z,2.64
2023-01-28T15:15:09.419Z,2.61
2023-01-28T15:16:41.425Z,2.62
2023-01-28T15:18:13.350Z,2.60
2023-01-28T15:19:45.276Z,2.61
2023-01-28T15:21:24.011Z,2.61
2023-01-28T15:22:55.955Z,2.60
2023-01-28T15:24:28.058Z,2.59
2023-01-28T15:25:59.990Z,2.56
2023-01-28T15:27:32.302Z,2.54
2023-01-28T15:29:04.236Z,2.51
2023-01-28T15:30:36.240Z,2.49
2023-01-28T15:32:23.207Z,2.50
2023-01-28T15:33:58.898Z,2.49
2023-01-28T15:35:31.037Z,2.50
2023-01-28T15:37:02.959Z,2.51
2023-01-28T15:38:34.983Z,2.50
2023-01-28T15:40:07.437Z,2.50
2023-01-28T15:41:39.618Z,2.51
2023-01-28T15:43:21.354Z,2.49
2023-01-28T15:44:53.300Z,2.48
2023-01-28T15:46:25.106Z,2.48
2023-01-28T15:48:03.278Z,2.49
2023-01-28T15:49:36.163Z,2.48
2023-01-28T15:51:09.182Z,2.48
2023-01-28T15:52:41.721Z,2.48
2023-01-28T15:54:13.535Z,2.46
2023-01-28T15:55:45.539Z,2.47
2023-01-28T15:57:21.145Z,2.46
2023-01-28T15:58:53.363Z,2.47
2023-01-28T16:00:25.676Z,2.46
2023-01-28T16:02:18.882Z,2.46
2023-01-28T16:04:01.169Z,2.41
2023-01-28T16:05:34.932Z,2.42
2023-01-28T16:07:06.851Z,2.43
2023-01-28T16:10:19.878Z,2.44
2023-01-28T16:11:51.998Z,2.42
2023-01-28T16:13:24.894Z,2.41
2023-01-28T16:15:01.437Z,2.40
2023-01-28T16:16:36.455Z,2.40
2023-01-28T16:18:08.370Z,2.40
2023-01-28T16:19:46.262Z,2.41
2023-01-28T16:21:22.366Z,2.39
2023-01-28T16:22:57.689Z,2.38
2023-01-28T16:24:36.244Z,2.35
2023-01-28T16:26:21.544Z,2.34
2023-01-28T16:27:53.418Z,2.32
2023-01-28T16:29:25.712Z,2.33
2023-01-28T16:30:58.776Z,2.32
2023-01-28T16:32:33.622Z,2.32
2023-01-28T16:34:05.489Z,2.30
2023-01-28T16:36:01.253Z,2.32
2023-01-28T16:37:29.388Z,2.32
2023-01-28T16:39:01.437Z,2.32
2023-01-28T16:40:35.076Z,2.30
2023-01-28T16:42:06.967Z,2.27
2023-01-28T16:43:38.810Z,2.26
2023-01-28T16:45:21.097Z,2.26
2023-01-28T16:46:53.054Z,2.23
2023-01-28T16:48:25.006Z,2.23
2023-01-28T16:49:57.069Z,2.22
2023-01-28T16:51:29.007Z,2.20
2023-01-28T16:53:00.923Z,2.19
2023-01-28T16:54:33.570Z,2.19
2023-01-28T16:56:07.018Z,2.18
2023-01-28T16:57:38.965Z,2.16
2023-01-28T16:59:11.351Z,2.14
2023-01-28T17:00:43.255Z,2.12
2023-01-28T17:02:15.850Z,2.12
2023-01-28T17:03:47.877Z,2.14
2023-01-28T17:05:20.444Z,2.14
2023-01-28T17:06:53.305Z,2.14
2023-01-28T17:08:25.978Z,2.15
2023-01-28T17:09:58.135Z,2.14
2023-01-28T17:11:30.161Z,2.15
2023-01-28T17:13:02.364Z,2.15
2023-01-28T17:14:34.271Z,2.14
2023-01-28T17:16:06.368Z,2.14
2023-01-28T17:17:38.293Z,2.15
2023-01-28T17:19:10.242Z,2.16
2023-01-28T17:20:42.079Z,2.17
2023-01-28T17:22:14.013Z,2.18
2023-01-28T17:25:19.784Z,2.18
2023-01-28T17:26:54.488Z,2.18
2023-01-28T17:28:26.426Z,2.16
2023-01-28T17:29:58.352Z,2.14
2023-01-28T17:31:30.285Z,2.11
2023-01-28T17:33:02.268Z,2.11
2023-01-28T17:34:34.139Z,2.10
2023-01-28T17:36:06.173Z,2.09
2023-01-28T17:37:38.675Z,2.08
2023-01-28T17:39:10.672Z,2.09
2023-01-28T19:09:00.007Z,2.09
2023-01-28T19:10:31.926Z,2.11
2023-01-28T19:12:03.910Z,2.12
2023-01-28T19:13:35.830Z,2.13
2023-01-28T19:15:08.206Z,2.12
2023-01-28T19:16:40.150Z,2.14
2023-01-28T19:18:12.162Z,2.14
2023-01-28T19:19:44.125Z,2.13
2023-01-28T19:21:16.038Z,2.10
2023-01-28T19:22:48.252Z,2.10
2023-01-28T19:24:23.218Z,2.11
2023-01-28T19:25:55.250Z,2.11
2023-01-28T19:27:27.247Z,2.11
2023-01-28T19:28:59.363Z,2.08
2023-01-28T19:30:31.322Z,2.07
2023-01-28T19:32:04.928Z,2.09
2023-01-28T19:33:36.806Z,2.10
2023-01-28T19:35:08.685Z,2.10
2023-01-28T19:36:40.713Z,2.11
2023-01-28T19:38:12.711Z,2.12
2023-01-28T19:39:44.629Z,2.12
2023-01-28T19:41:17.742Z,2.12
2023-01-28T19:42:52.184Z,2.11
2023-01-28T19:44:24.091Z,2.11
2023-01-28T19:45:59.623Z,2.10
2023-01-28T19:47:31.559Z,2.08
2023-01-28T19:49:04.436Z,2.07
2023-01-28T19:50:37.198Z,2.07
2023-01-28T19:52:11.323Z,2.09
2023-01-28T19:53:44.068Z,2.10
2023-01-28T19:55:16.340Z,2.11
2023-01-28T19:56:48.504Z,2.10
2023-01-28T19:58:20.424Z,2.09
2023-01-28T19:59:52.365Z,2.09
2023-01-28T20:01:25.475Z,2.08
2023-01-28T20:02:58.035Z,2.07
2023-01-28T20:04:29.973Z,2.08
2023-01-28T20:06:06.093Z,2.07
2023-01-28T20:07:37.941Z,2.06
2023-01-28T20:09:16.528Z,2.06
2023-01-28T20:10:48.353Z,2.06
2023-01-28T20:12:20.159Z,2.07
2023-01-28T20:13:52.368Z,2.08
2023-01-28T20:15:24.274Z,2.07
2023-01-28T20:16:56.073Z,2.09
2023-01-28T20:18:28.078Z,2.08
2023-01-28T20:19:59.998Z,2.08
2023-01-28T20:21:32.112Z,2.07
2023-01-28T20:23:06.132Z,2.07
2023-01-28T20:24:37.909Z,2.08
2023-01-28T20:26:09.884Z,2.07
2023-01-28T20:27:41.956Z,2.08
2023-01-28T20:29:14.829Z,2.09
2023-01-28T20:30:46.786Z,2.10
2023-01-28T20:32:20.555Z,2.10
2023-01-28T20:33:52.687Z,2.09
2023-01-28T20:35:24.549Z,2.06
2023-01-28T20:36:56.416Z,2.06
2023-01-28T20:38:28.359Z,2.06
2023-01-28T20:40:00.401Z,2.08
2023-01-28T20:41:32.287Z,2.08
2023-01-28T20:43:04.138Z,2.09
2023-01-28T20:44:35.961Z,2.09
2023-01-28T20:46:08.918Z,2.09
2023-01-28T20:47:40.937Z,2.10
2023-01-28T20:49:12.889Z,2.10
2023-01-28T20:50:44.702Z,2.09
2023-01-28T20:52:17.245Z,2.10
2023-01-28T20:53:49.448Z,2.10
2023-01-28T20:55:21.369Z,2.09
2023-01-28T20:56:53.455Z,2.09
2023-01-28T20:58:26.536Z,2.09
2023-01-28T20:59:58.392Z,2.09
2023-01-28T21:01:31.687Z,2.09
2023-01-28T21:03:03.738Z,2.07
2023-01-28T21:04:36.339Z,2.09
2023-01-28T21:06:08.229Z,2.10
2023-01-28T21:07:40.260Z,2.09
2023-01-28T21:09:12.198Z,2.12
2023-01-28T21:12:16.777Z,2.11
2023-01-28T21:13:48.859Z,2.11
2023-01-28T21:15:20.688Z,2.11
2023-01-28T21:16:53.410Z,2.11
2023-01-28T21:18:25.855Z,2.10
2023-01-28T21:19:58.031Z,2.10
2023-01-28T21:21:29.953Z,2.09
2023-01-28T21:23:01.919Z,2.09
2023-01-28T21:24:33.890Z,2.08
2023-01-28T21:26:06.044Z,2.08
2023-01-28T21:27:37.848Z,2.08
2023-01-28T21:29:14.873Z,2.10
2023-01-28T21:30:46.944Z,2.12
2023-01-28T21:32:18.925Z,2.13
2023-01-28T21:33:51.412Z,2.13
2023-01-28T21:35:23.286Z,2.14
2023-01-28T21:36:55.116Z,2.16
2023-01-28T21:38:27.009Z,2.17
2023-01-28T21:39:59.198Z,2.17
2023-01-28T21:41:31.418Z,2.18
2023-01-28T21:43:03.350Z,2.19
2023-01-28T21:44:35.223Z,2.19
2023-01-28T21:47:40.808Z,2.22
2023-01-28T21:49:12.787Z,2.21
2023-01-28T21:51:03.213Z,2.21
2023-01-28T21:52:35.215Z,2.20
2023-01-28T21:54:08.730Z,2.20
2023-01-28T21:55:40.629Z,2.17
2023-01-28T21:57:12.530Z,2.18
2023-01-28T21:59:03.070Z,2.17
2023-01-28T22:00:34.906Z,2.17
2023-01-28T22:02:09.343Z,2.18
2023-01-28T22:03:41.541Z,2.18
2023-01-28T22:05:13.385Z,2.19
2023-01-28T22:06:45.631Z,2.17
2023-01-28T22:08:18.129Z,2.17
2023-01-28T22:09:50.796Z,2.18
2023-01-28T22:11:22.725Z,2.18
2023-01-28T22:12:54.616Z,2.19
2023-01-28T22:14:26.597Z,2.18
2023-01-28T22:15:58.684Z,2.17
2023-01-28T22:17:30.764Z,2.15
2023-01-28T22:19:02.752Z,2.16
2023-01-28T22:20:34.800Z,2.16
2023-01-28T22:22:06.788Z,2.15
2023-01-28T22:23:38.703Z,2.15
2023-01-28T22:25:10.656Z,2.14
2023-01-28T22:26:43.147Z,2.12
2023-01-28T22:28:14.920Z,2.11
2023-01-28T22:29:46.757Z,2.10
2023-01-28T22:31:18.849Z,2.09
2023-01-28T22:32:50.809Z,2.09
2023-01-28T22:34:23.332Z,2.09
2023-01-28T22:35:55.134Z,2.09
2023-01-28T22:37:26.978Z,2.08
2023-01-28T22:38:58.904Z,2.07
2023-01-28T22:40:31.009Z,2.05
2023-01-28T22:42:02.835Z,2.06
2023-01-28T22:43:34.769Z,2.06
2023-01-28T22:45:06.940Z,2.07
2023-01-28T22:46:38.851Z,2.07
2023-01-28T22:48:10.797Z,2.07
2023-01-28T22:51:16.497Z,2.07